sensor_id;sensor_type;location;lat;lon;timestamp;P1;durP1;ratioP1;P2;durP2;ratioP2
37609;SDS011;23457;51.966;8.230;2023-11-19T00:00:07;7.70;;;6.50;;
37609;SDS011;23457;51.966;8.230;2023-11-19T00:02:40;7.70;;;6.30;;
37609;SDS011;23457;51.966;8.230;2023-11-19T00:05:08;7.30;;;6.50;;
37609;SDS011;23457;51.966;8.230;2023-11-19T00:07:39;7.63;;;6.18;;
37609;SDS011;23457;51.966;8.230;2023-11-19T00:10:10;7.72;;;6.57;;
37609;SDS011;23457;51.966;8.230;2023-11-19T00:12:42;7.57;;;6.40;;
37609;SDS011;23457;51.966;8.230;2023-11-19T00:15:10;9.73;;;6.82;;
37609;SDS011;23457;51.966;8.230;2023-11-19T00:17:41;7.18;;;5.97;;
37609;SDS011;23457;51.966;8.230;2023-11-19T00:20:12;8.85;;;6.38;;
37609;SDS011;23457;51.966;8.230;2023-11-19T00:22:40;6.82;;;5.95;;
37609;SDS011;23457;51.966;8.230;2023-11-19T00:25:13;6.30;;;5.20;;
37609;SDS011;23457;51.966;8.230;2023-11-19T00:27:40;5.93;;;5.32;;
37609;SDS011;23457;51.966;8.230;2023-11-19T00:30:11;10.85;;;6.20;;
37609;SDS011;23457;51.966;8.230;2023-11-19T00:32:38;6.07;;;5.13;;
37609;SDS011;23457;51.966;8.230;2023-11-19T00:35:06;7.88;;;5.63;;
37609;SDS011;23457;51.966;8.230;2023-11-19T00:37:42;5.40;;;4.78;;
37609;SDS011;23457;51.966;8.230;2023-11-19T00:40:09;5.53;;;4.75;;
37609;SDS011;23457;51.966;8.230;2023-11-19T00:42:38;4.63;;;4.22;;
37609;SDS011;23457;51.966;8.230;2023-11-19T00:45:05;5.65;;;4.40;;
37609;SDS011;23457;51.966;8.230;2023-11-19T00:47:36;4.97;;;4.57;;
37609;SDS011;23457;51.966;8.230;2023-11-19T00:50:03;5.03;;;4.53;;
37609;SDS011;23457;51.966;8.230;2023-11-19T00:52:30;7.53;;;4.97;;
37609;SDS011;23457;51.966;8.230;2023-11-19T00:54:57;5.10;;;4.60;;
37609;SDS011;23457;51.966;8.230;2023-11-19T00:57:23;5.07;;;4.55;;
37609;SDS011;23457;51.966;8.230;2023-11-19T00:59:51;6.82;;;4.72;;
37609;SDS011;23457;51.966;8.230;2023-11-19T01:02:18;5.55;;;4.97;;
37609;SDS011;23457;51.966;8.230;2023-11-19T01:04:45;5.43;;;4.93;;
37609;SDS011;23457;51.966;8.230;2023-11-19T01:07:12;8.23;;;4.75;;
37609;SDS011;23457;51.966;8.230;2023-11-19T01:09:41;6.07;;;5.03;;
37609;SDS011;23457;51.966;8.230;2023-11-19T01:12:09;9.70;;;6.20;;
37609;SDS011;23457;51.966;8.230;2023-11-19T01:14:37;8.48;;;6.47;;
37609;SDS011;23457;51.966;8.230;2023-11-19T01:17:05;8.15;;;6.05;;
37609;SDS011;23457;51.966;8.230;2023-11-19T01:19:32;8.30;;;7.22;;
37609;SDS011;23457;51.966;8.230;2023-11-19T01:21:59;9.18;;;8.20;;
37609;SDS011;23457;51.966;8.230;2023-11-19T01:24:26;9.70;;;8.40;;
37609;SDS011;23457;51.966;8.230;2023-11-19T01:26:55;9.45;;;8.48;;
37609;SDS011;23457;51.966;8.230;2023-11-19T01:29:24;13.18;;;8.95;;
37609;SDS011;23457;51.966;8.230;2023-11-19T01:31:51;11.00;;;9.57;;
37609;SDS011;23457;51.966;8.230;2023-11-19T01:34:18;10.43;;;9.32;;
37609;SDS011;23457;51.966;8.230;2023-11-19T01:36:46;11.05;;;9.55;;
37609;SDS011;23457;51.966;8.230;2023-11-19T01:39:15;12.82;;;10.27;;
37609;SDS011;23457;51.966;8.230;2023-11-19T01:41:43;11.48;;;9.73;;
37609;SDS011;23457;51.966;8.230;2023-11-19T01:44:10;13.68;;;10.00;;
37609;SDS011;23457;51.966;8.230;2023-11-19T01:46:42;11.35;;;9.80;;
37609;SDS011;23457;51.966;8.230;2023-11-19T01:49:10;11.95;;;9.57;;
37609;SDS011;23457;51.966;8.230;2023-11-19T01:51:39;12.23;;;8.70;;
37609;SDS011;23457;51.966;8.230;2023-11-19T01:54:07;11.35;;;9.27;;
37609;SDS011;23457;51.966;8.230;2023-11-19T01:56:35;9.23;;;8.30;;
37609;SDS011;23457;51.966;8.230;2023-11-19T01:59:03;9.00;;;7.78;;
37609;SDS011;23457;51.966;8.230;2023-11-19T02:01:31;10.13;;;7.47;;
37609;SDS011;23457;51.966;8.230;2023-11-19T02:04:01;10.57;;;7.90;;
37609;SDS011;23457;51.966;8.230;2023-11-19T02:06:28;9.38;;;7.90;;
37609;SDS011;23457;51.966;8.230;2023-11-19T02:08:58;9.60;;;8.52;;
37609;SDS011;23457;51.966;8.230;2023-11-19T02:11:25;9.35;;;8.05;;
37609;SDS011;23457;51.966;8.230;2023-11-19T02:13:55;11.30;;;9.18;;
37609;SDS011;23457;51.966;8.230;2023-11-19T02:16:23;10.60;;;9.25;;
37609;SDS011;23457;51.966;8.230;2023-11-19T02:18:50;9.88;;;8.85;;
37609;SDS011;23457;51.966;8.230;2023-11-19T02:21:17;14.70;;;10.13;;
37609;SDS011;23457;51.966;8.230;2023-11-19T02:23:44;13.43;;;11.15;;
37609;SDS011;23457;51.966;8.230;2023-11-19T02:29:05;15.50;;;12.88;;
37609;SDS011;23457;51.966;8.230;2023-11-19T02:31:34;19.05;;;13.48;;
37609;SDS011;23457;51.966;8.230;2023-11-19T02:34:01;22.38;;;14.48;;
37609;SDS011;23457;51.966;8.230;2023-11-19T02:36:29;21.75;;;15.60;;
37609;SDS011;23457;51.966;8.230;2023-11-19T02:38:58;19.70;;;15.40;;
37609;SDS011;23457;51.966;8.230;2023-11-19T02:41:25;24.60;;;17.52;;
37609;SDS011;23457;51.966;8.230;2023-11-19T02:43:51;27.13;;;19.35;;
37609;SDS011;23457;51.966;8.230;2023-11-19T02:46:18;24.63;;;19.35;;
37609;SDS011;23457;51.966;8.230;2023-11-19T02:48:45;30.92;;;20.63;;
37609;SDS011;23457;51.966;8.230;2023-11-19T02:51:12;32.63;;;22.98;;
37609;SDS011;23457;51.966;8.230;2023-11-19T02:53:39;31.90;;;21.85;;
37609;SDS011;23457;51.966;8.230;2023-11-19T02:56:07;35.53;;;22.95;;
37609;SDS011;23457;51.966;8.230;2023-11-19T02:58:52;35.13;;;22.77;;
37609;SDS011;23457;51.966;8.230;2023-11-19T03:01:23;37.47;;;24.80;;
37609;SDS011;23457;51.966;8.230;2023-11-19T03:03:58;40.35;;;25.48;;
37609;SDS011;23457;51.966;8.230;2023-11-19T03:06:26;40.88;;;24.90;;
37609;SDS011;23457;51.966;8.230;2023-11-19T03:08:57;38.20;;;24.95;;
37609;SDS011;23457;51.966;8.230;2023-11-19T03:11:23;39.60;;;25.90;;
37609;SDS011;23457;51.966;8.230;2023-11-19T03:13:51;37.88;;;25.30;;
37609;SDS011;23457;51.966;8.230;2023-11-19T03:16:18;37.10;;;24.67;;
37609;SDS011;23457;51.966;8.230;2023-11-19T03:18:44;40.85;;;25.75;;
37609;SDS011;23457;51.966;8.230;2023-11-19T03:21:11;35.15;;;24.58;;
37609;SDS011;23457;51.966;8.230;2023-11-19T03:23:39;38.80;;;25.00;;
37609;SDS011;23457;51.966;8.230;2023-11-19T03:26:07;41.90;;;25.73;;
37609;SDS011;23457;51.966;8.230;2023-11-19T03:28:34;41.90;;;26.17;;
37609;SDS011;23457;51.966;8.230;2023-11-19T03:31:01;44.05;;;26.67;;
37609;SDS011;23457;51.966;8.230;2023-11-19T03:33:31;45.55;;;26.70;;
37609;SDS011;23457;51.966;8.230;2023-11-19T03:35:58;41.85;;;25.98;;
37609;SDS011;23457;51.966;8.230;2023-11-19T03:38:24;43.20;;;26.45;;
37609;SDS011;23457;51.966;8.230;2023-11-19T03:40:52;43.35;;;25.50;;
37609;SDS011;23457;51.966;8.230;2023-11-19T03:43:20;50.72;;;26.25;;
37609;SDS011;23457;51.966;8.230;2023-11-19T03:45:47;39.95;;;25.73;;
37609;SDS011;23457;51.966;8.230;2023-11-19T03:48:14;37.22;;;24.35;;
37609;SDS011;23457;51.966;8.230;2023-11-19T03:50:45;37.60;;;23.67;;
37609;SDS011;23457;51.966;8.230;2023-11-19T03:53:12;37.45;;;23.08;;
37609;SDS011;23457;51.966;8.230;2023-11-19T03:55:40;36.60;;;22.80;;
37609;SDS011;23457;51.966;8.230;2023-11-19T03:58:06;36.30;;;21.17;;
37609;SDS011;23457;51.966;8.230;2023-11-19T04:00:33;26.65;;;18.98;;
37609;SDS011;23457;51.966;8.230;2023-11-19T04:03:00;30.50;;;17.38;;
37609;SDS011;23457;51.966;8.230;2023-11-19T04:05:27;29.63;;;17.33;;
37609;SDS011;23457;51.966;8.230;2023-11-19T04:07:54;28.90;;;16.63;;
37609;SDS011;23457;51.966;8.230;2023-11-19T04:10:21;24.88;;;15.63;;
37609;SDS011;23457;51.966;8.230;2023-11-19T04:12:49;24.98;;;14.68;;
37609;SDS011;23457;51.966;8.230;2023-11-19T04:15:16;27.33;;;14.57;;
37609;SDS011;23457;51.966;8.230;2023-11-19T04:17:43;30.70;;;12.98;;
37609;SDS011;23457;51.966;8.230;2023-11-19T04:20:13;27.73;;;12.07;;
37609;SDS011;23457;51.966;8.230;2023-11-19T04:22:41;25.42;;;11.57;;
37609;SDS011;23457;51.966;8.230;2023-11-19T04:25:08;26.73;;;11.05;;
37609;SDS011;23457;51.966;8.230;2023-11-19T04:27:38;24.33;;;10.80;;
37609;SDS011;23457;51.966;8.230;2023-11-19T04:30:07;31.52;;;9.50;;
37609;SDS011;23457;51.966;8.230;2023-11-19T04:32:46;21.52;;;8.43;;
37609;SDS011;23457;51.966;8.230;2023-11-19T04:35:12;21.73;;;8.07;;
37609;SDS011;23457;51.966;8.230;2023-11-19T04:37:39;31.33;;;8.10;;
37609;SDS011;23457;51.966;8.230;2023-11-19T04:40:06;23.67;;;6.85;;
37609;SDS011;23457;51.966;8.230;2023-11-19T04:42:41;25.33;;;7.63;;
37609;SDS011;23457;51.966;8.230;2023-11-19T04:45:08;18.65;;;5.70;;
37609;SDS011;23457;51.966;8.230;2023-11-19T04:47:44;27.05;;;6.13;;
37609;SDS011;23457;51.966;8.230;2023-11-19T04:50:11;23.58;;;5.88;;
37609;SDS011;23457;51.966;8.230;2023-11-19T04:52:38;22.15;;;5.57;;
37609;SDS011;23457;51.966;8.230;2023-11-19T04:55:12;21.98;;;5.38;;
37609;SDS011;23457;51.966;8.230;2023-11-19T04:57:40;23.60;;;5.80;;
37609;SDS011;23457;51.966;8.230;2023-11-19T05:00:07;28.75;;;6.55;;
37609;SDS011;23457;51.966;8.230;2023-11-19T05:02:42;23.42;;;4.97;;
37609;SDS011;23457;51.966;8.230;2023-11-19T05:05:11;26.27;;;4.85;;
37609;SDS011;23457;51.966;8.230;2023-11-19T05:07:39;19.52;;;3.85;;
37609;SDS011;23457;51.966;8.230;2023-11-19T05:10:06;25.38;;;5.50;;
37609;SDS011;23457;51.966;8.230;2023-11-19T05:12:33;24.52;;;4.40;;
37609;SDS011;23457;51.966;8.230;2023-11-19T05:15:00;21.58;;;4.57;;
37609;SDS011;23457;51.966;8.230;2023-11-19T05:17:27;22.83;;;5.28;;
37609;SDS011;23457;51.966;8.230;2023-11-19T05:19:54;24.75;;;5.13;;
37609;SDS011;23457;51.966;8.230;2023-11-19T05:22:21;26.67;;;4.97;;
37609;SDS011;23457;51.966;8.230;2023-11-19T05:24:48;23.27;;;5.40;;
37609;SDS011;23457;51.966;8.230;2023-11-19T05:27:16;27.48;;;4.93;;
37609;SDS011;23457;51.966;8.230;2023-11-19T05:29:43;33.22;;;5.85;;
37609;SDS011;23457;51.966;8.230;2023-11-19T05:32:10;22.10;;;4.55;;
37609;SDS011;23457;51.966;8.230;2023-11-19T05:34:37;23.75;;;4.43;;
37609;SDS011;23457;51.966;8.230;2023-11-19T05:37:17;23.48;;;4.50;;
37609;SDS011;23457;51.966;8.230;2023-11-19T05:39:45;27.77;;;4.28;;
37609;SDS011;23457;51.966;8.230;2023-11-19T05:42:12;26.05;;;4.88;;
37609;SDS011;23457;51.966;8.230;2023-11-19T05:44:39;27.67;;;4.70;;
37609;SDS011;23457;51.966;8.230;2023-11-19T05:47:07;31.77;;;4.90;;
37609;SDS011;23457;51.966;8.230;2023-11-19T05:49:34;19.75;;;4.35;;
37609;SDS011;23457;51.966;8.230;2023-11-19T05:52:01;23.90;;;4.60;;
37609;SDS011;23457;51.966;8.230;2023-11-19T05:54:29;21.88;;;4.43;;
37609;SDS011;23457;51.966;8.230;2023-11-19T05:56:58;23.10;;;4.03;;
37609;SDS011;23457;51.966;8.230;2023-11-19T05:59:24;29.95;;;4.63;;
37609;SDS011;23457;51.966;8.230;2023-11-19T06:01:52;22.65;;;4.38;;
37609;SDS011;23457;51.966;8.230;2023-11-19T06:04:19;21.17;;;4.57;;
37609;SDS011;23457;51.966;8.230;2023-11-19T06:06:45;34.45;;;5.70;;
37609;SDS011;23457;51.966;8.230;2023-11-19T06:09:12;36.13;;;6.03;;
37609;SDS011;23457;51.966;8.230;2023-11-19T06:11:40;26.50;;;5.13;;
37609;SDS011;23457;51.966;8.230;2023-11-19T06:14:06;29.60;;;5.43;;
37609;SDS011;23457;51.966;8.230;2023-11-19T06:16:33;27.60;;;6.10;;
37609;SDS011;23457;51.966;8.230;2023-11-19T06:19:00;27.00;;;5.68;;
37609;SDS011;23457;51.966;8.230;2023-11-19T06:21:27;27.92;;;5.95;;
37609;SDS011;23457;51.966;8.230;2023-11-19T06:23:54;35.80;;;6.10;;
37609;SDS011;23457;51.966;8.230;2023-11-19T06:26:21;25.30;;;5.80;;
37609;SDS011;23457;51.966;8.230;2023-11-19T06:28:49;39.38;;;5.20;;
37609;SDS011;23457;51.966;8.230;2023-11-19T06:31:15;36.88;;;5.78;;
37609;SDS011;23457;51.966;8.230;2023-11-19T06:33:42;34.85;;;6.43;;
37609;SDS011;23457;51.966;8.230;2023-11-19T06:36:09;37.60;;;6.57;;
37609;SDS011;23457;51.966;8.230;2023-11-19T06:38:37;23.92;;;4.57;;
37609;SDS011;23457;51.966;8.230;2023-11-19T06:41:06;22.90;;;4.95;;
37609;SDS011;23457;51.966;8.230;2023-11-19T06:43:35;36.80;;;5.18;;
37609;SDS011;23457;51.966;8.230;2023-11-19T06:46:05;38.47;;;5.13;;
37609;SDS011;23457;51.966;8.230;2023-11-19T06:48:40;32.08;;;5.97;;
37609;SDS011;23457;51.966;8.230;2023-11-19T06:51:09;38.83;;;6.53;;
37609;SDS011;23457;51.966;8.230;2023-11-19T06:53:36;36.40;;;5.72;;
37609;SDS011;23457;51.966;8.230;2023-11-19T06:56:03;32.95;;;5.22;;
37609;SDS011;23457;51.966;8.230;2023-11-19T06:58:35;40.05;;;6.32;;
37609;SDS011;23457;51.966;8.230;2023-11-19T07:01:02;35.55;;;5.60;;
37609;SDS011;23457;51.966;8.230;2023-11-19T07:03:30;37.75;;;6.07;;
37609;SDS011;23457;51.966;8.230;2023-11-19T07:05:57;36.92;;;5.53;;
37609;SDS011;23457;51.966;8.230;2023-11-19T07:08:25;40.92;;;6.10;;
37609;SDS011;23457;51.966;8.230;2023-11-19T07:10:53;37.17;;;4.97;;
37609;SDS011;23457;51.966;8.230;2023-11-19T07:13:19;38.08;;;5.80;;
37609;SDS011;23457;51.966;8.230;2023-11-19T07:15:47;39.85;;;5.05;;
37609;SDS011;23457;51.966;8.230;2023-11-19T07:18:14;31.13;;;5.15;;
37609;SDS011;23457;51.966;8.230;2023-11-19T07:20:41;34.10;;;5.57;;
37609;SDS011;23457;51.966;8.230;2023-11-19T07:23:08;32.58;;;5.65;;
37609;SDS011;23457;51.966;8.230;2023-11-19T07:25:36;40.28;;;6.45;;
37609;SDS011;23457;51.966;8.230;2023-11-19T07:28:03;34.17;;;5.40;;
37609;SDS011;23457;51.966;8.230;2023-11-19T07:30:31;43.22;;;6.00;;
37609;SDS011;23457;51.966;8.230;2023-11-19T07:32:58;40.10;;;6.13;;
37609;SDS011;23457;51.966;8.230;2023-11-19T07:35:24;35.20;;;5.95;;
37609;SDS011;23457;51.966;8.230;2023-11-19T07:37:51;40.17;;;5.95;;
37609;SDS011;23457;51.966;8.230;2023-11-19T07:40:19;41.92;;;5.97;;
37609;SDS011;23457;51.966;8.230;2023-11-19T07:42:46;41.28;;;7.13;;
37609;SDS011;23457;51.966;8.230;2023-11-19T07:45:16;48.72;;;5.82;;
37609;SDS011;23457;51.966;8.230;2023-11-19T07:47:44;38.60;;;5.82;;
37609;SDS011;23457;51.966;8.230;2023-11-19T07:50:13;39.63;;;5.57;;
37609;SDS011;23457;51.966;8.230;2023-11-19T07:52:43;42.53;;;7.03;;
37609;SDS011;23457;51.966;8.230;2023-11-19T07:55:10;43.75;;;6.75;;
37609;SDS011;23457;51.966;8.230;2023-11-19T08:00:06;31.38;;;5.05;;
37609;SDS011;23457;51.966;8.230;2023-11-19T08:02:39;48.63;;;6.65;;
37609;SDS011;23457;51.966;8.230;2023-11-19T08:05:06;39.08;;;5.93;;
37609;SDS011;23457;51.966;8.230;2023-11-19T08:10:03;44.80;;;6.28;;
37609;SDS011;23457;51.966;8.230;2023-11-19T08:12:31;36.30;;;6.70;;
37609;SDS011;23457;51.966;8.230;2023-11-19T08:14:58;39.17;;;6.68;;
37609;SDS011;23457;51.966;8.230;2023-11-19T08:17:25;34.97;;;6.63;;
37609;SDS011;23457;51.966;8.230;2023-11-19T08:19:51;31.35;;;6.30;;
37609;SDS011;23457;51.966;8.230;2023-11-19T08:22:18;36.40;;;5.88;;
37609;SDS011;23457;51.966;8.230;2023-11-19T08:24:45;40.65;;;5.80;;
37609;SDS011;23457;51.966;8.230;2023-11-19T08:27:12;37.85;;;5.82;;
37609;SDS011;23457;51.966;8.230;2023-11-19T08:29:38;44.40;;;6.95;;
37609;SDS011;23457;51.966;8.230;2023-11-19T08:32:05;40.33;;;6.45;;
37609;SDS011;23457;51.966;8.230;2023-11-19T08:34:33;29.58;;;5.55;;
37609;SDS011;23457;51.966;8.230;2023-11-19T08:37:00;33.65;;;5.72;;
37609;SDS011;23457;51.966;8.230;2023-11-19T08:39:27;36.55;;;6.22;;
37609;SDS011;23457;51.966;8.230;2023-11-19T08:41:53;39.53;;;6.35;;
37609;SDS011;23457;51.966;8.230;2023-11-19T08:44:22;39.08;;;5.68;;
37609;SDS011;23457;51.966;8.230;2023-11-19T08:46:49;43.10;;;6.93;;
37609;SDS011;23457;51.966;8.230;2023-11-19T08:49:16;39.15;;;6.40;;
37609;SDS011;23457;51.966;8.230;2023-11-19T08:51:43;37.50;;;6.00;;
37609;SDS011;23457;51.966;8.230;2023-11-19T08:54:09;39.25;;;7.00;;
37609;SDS011;23457;51.966;8.230;2023-11-19T08:56:37;30.70;;;6.20;;
37609;SDS011;23457;51.966;8.230;2023-11-19T08:59:05;41.95;;;6.45;;
37609;SDS011;23457;51.966;8.230;2023-11-19T09:01:32;40.67;;;6.85;;
37609;SDS011;23457;51.966;8.230;2023-11-19T09:03:59;32.92;;;5.80;;
37609;SDS011;23457;51.966;8.230;2023-11-19T09:06:26;32.08;;;6.30;;
37609;SDS011;23457;51.966;8.230;2023-11-19T09:08:53;39.95;;;6.55;;
37609;SDS011;23457;51.966;8.230;2023-11-19T09:11:24;38.05;;;7.00;;
37609;SDS011;23457;51.966;8.230;2023-11-19T09:13:51;40.45;;;6.65;;
37609;SDS011;23457;51.966;8.230;2023-11-19T09:16:18;37.20;;;5.72;;
37609;SDS011;23457;51.966;8.230;2023-11-19T09:18:44;41.88;;;7.25;;
37609;SDS011;23457;51.966;8.230;2023-11-19T09:21:11;47.40;;;6.15;;
37609;SDS011;23457;51.966;8.230;2023-11-19T09:23:38;41.25;;;5.97;;
37609;SDS011;23457;51.966;8.230;2023-11-19T09:26:06;42.60;;;6.97;;
37609;SDS011;23457;51.966;8.230;2023-11-19T09:28:34;47.33;;;6.35;;
37609;SDS011;23457;51.966;8.230;2023-11-19T09:31:02;38.63;;;5.63;;
37609;SDS011;23457;51.966;8.230;2023-11-19T09:33:31;37.28;;;5.78;;
37609;SDS011;23457;51.966;8.230;2023-11-19T09:35:57;35.78;;;6.43;;
37609;SDS011;23457;51.966;8.230;2023-11-19T09:38:24;40.22;;;6.55;;
37609;SDS011;23457;51.966;8.230;2023-11-19T09:40:51;42.00;;;6.78;;
37609;SDS011;23457;51.966;8.230;2023-11-19T09:43:18;41.20;;;6.10;;
37609;SDS011;23457;51.966;8.230;2023-11-19T09:45:48;32.50;;;5.88;;
37609;SDS011;23457;51.966;8.230;2023-11-19T09:48:17;31.48;;;5.70;;
37609;SDS011;23457;51.966;8.230;2023-11-19T09:50:48;35.92;;;6.88;;
37609;SDS011;23457;51.966;8.230;2023-11-19T09:53:15;41.55;;;6.97;;
37609;SDS011;23457;51.966;8.230;2023-11-19T09:55:42;45.55;;;6.93;;
37609;SDS011;23457;51.966;8.230;2023-11-19T09:58:09;42.38;;;6.25;;
37609;SDS011;23457;51.966;8.230;2023-11-19T10:00:39;34.25;;;5.97;;
37609;SDS011;23457;51.966;8.230;2023-11-19T10:03:07;42.78;;;6.20;;
37609;SDS011;23457;51.966;8.230;2023-11-19T10:05:37;41.42;;;5.85;;
37609;SDS011;23457;51.966;8.230;2023-11-19T10:08:07;41.42;;;6.72;;
37609;SDS011;23457;51.966;8.230;2023-11-19T10:10:34;43.72;;;6.18;;
37609;SDS011;23457;51.966;8.230;2023-11-19T10:13:01;37.55;;;6.30;;
37609;SDS011;23457;51.966;8.230;2023-11-19T10:15:28;37.65;;;6.20;;
37609;SDS011;23457;51.966;8.230;2023-11-19T10:18:02;45.92;;;6.55;;
37609;SDS011;23457;51.966;8.230;2023-11-19T10:20:37;43.42;;;5.93;;
37609;SDS011;23457;51.966;8.230;2023-11-19T10:23:04;36.00;;;7.00;;
37609;SDS011;23457;51.966;8.230;2023-11-19T10:25:31;46.40;;;6.47;;
37609;SDS011;23457;51.966;8.230;2023-11-19T10:28:00;40.95;;;6.15;;
37609;SDS011;23457;51.966;8.230;2023-11-19T10:30:27;44.60;;;6.68;;
37609;SDS011;23457;51.966;8.230;2023-11-19T10:35:30;38.70;;;5.53;;
37609;SDS011;23457;51.966;8.230;2023-11-19T10:37:58;46.90;;;7.25;;
37609;SDS011;23457;51.966;8.230;2023-11-19T10:40:38;38.00;;;5.72;;
37609;SDS011;23457;51.966;8.230;2023-11-19T10:43:06;39.30;;;6.38;;
37609;SDS011;23457;51.966;8.230;2023-11-19T10:45:35;38.17;;;5.28;;
37609;SDS011;23457;51.966;8.230;2023-11-19T10:48:05;38.60;;;5.47;;
37609;SDS011;23457;51.966;8.230;2023-11-19T10:50:34;40.40;;;5.65;;
37609;SDS011;23457;51.966;8.230;2023-11-19T10:53:03;37.47;;;6.03;;
37609;SDS011;23457;51.966;8.230;2023-11-19T10:55:31;43.22;;;5.38;;
37609;SDS011;23457;51.966;8.230;2023-11-19T10:58:08;32.65;;;5.13;;
37609;SDS011;23457;51.966;8.230;2023-11-19T11:03:19;47.50;;;6.47;;
37609;SDS011;23457;51.966;8.230;2023-11-19T11:05:47;48.53;;;6.45;;
37609;SDS011;23457;51.966;8.230;2023-11-19T11:08:15;37.30;;;6.30;;
37609;SDS011;23457;51.966;8.230;2023-11-19T11:13:17;36.03;;;5.30;;
37609;SDS011;23457;51.966;8.230;2023-11-19T11:15:47;42.72;;;5.30;;
37609;SDS011;23457;51.966;8.230;2023-11-19T11:18:15;39.35;;;5.72;;
37609;SDS011;23457;51.966;8.230;2023-11-19T11:20:44;42.25;;;5.95;;
37609;SDS011;23457;51.966;8.230;2023-11-19T11:28:56;46.67;;;6.13;;
37609;SDS011;23457;51.966;8.230;2023-11-19T11:31:34;37.35;;;5.90;;
37609;SDS011;23457;51.966;8.230;2023-11-19T11:39:43;34.90;;;5.75;;
37609;SDS011;23457;51.966;8.230;2023-11-19T11:47:47;38.50;;;6.38;;
37609;SDS011;23457;51.966;8.230;2023-11-19T11:50:14;42.72;;;5.63;;
37609;SDS011;23457;51.966;8.230;2023-11-19T11:55:25;42.65;;;6.75;;
37609;SDS011;23457;51.966;8.230;2023-11-19T11:58:00;38.95;;;6.20;;
37609;SDS011;23457;51.966;8.230;2023-11-19T12:00:31;40.78;;;6.75;;
37609;SDS011;23457;51.966;8.230;2023-11-19T12:02:59;39.60;;;5.57;;
37609;SDS011;23457;51.966;8.230;2023-11-19T12:05:28;39.10;;;5.73;;
37609;SDS011;23457;51.966;8.230;2023-11-19T12:08:01;40.65;;;6.40;;
37609;SDS011;23457;51.966;8.230;2023-11-19T12:10:31;32.65;;;5.10;;
37609;SDS011;23457;51.966;8.230;2023-11-19T12:13:04;35.20;;;5.25;;
37609;SDS011;23457;51.966;8.230;2023-11-19T12:15:33;45.08;;;6.13;;
37609;SDS011;23457;51.966;8.230;2023-11-19T12:18:20;48.63;;;6.40;;
37609;SDS011;23457;51.966;8.230;2023-11-19T12:20:48;41.08;;;5.47;;
37609;SDS011;23457;51.966;8.230;2023-11-19T12:23:15;34.78;;;5.85;;
37609;SDS011;23457;51.966;8.230;2023-11-19T12:25:42;43.40;;;6.45;;
37609;SDS011;23457;51.966;8.230;2023-11-19T12:28:12;43.42;;;6.28;;
37609;SDS011;23457;51.966;8.230;2023-11-19T12:30:39;37.28;;;5.53;;
37609;SDS011;23457;51.966;8.230;2023-11-19T12:33:10;34.58;;;5.60;;
37609;SDS011;23457;51.966;8.230;2023-11-19T12:35:41;40.65;;;7.05;;
37609;SDS011;23457;51.966;8.230;2023-11-19T12:38:18;34.38;;;4.93;;
37609;SDS011;23457;51.966;8.230;2023-11-19T12:40:47;37.50;;;5.65;;
37609;SDS011;23457;51.966;8.230;2023-11-19T12:43:23;40.30;;;6.13;;
37609;SDS011;23457;51.966;8.230;2023-11-19T12:45:50;37.63;;;5.95;;
37609;SDS011;23457;51.966;8.230;2023-11-19T12:48:17;36.47;;;5.60;;
37609;SDS011;23457;51.966;8.230;2023-11-19T12:51:17;38.53;;;5.70;;
37609;SDS011;23457;51.966;8.230;2023-11-19T12:53:50;40.50;;;5.68;;
37609;SDS011;23457;51.966;8.230;2023-11-19T12:56:21;28.30;;;4.97;;
37609;SDS011;23457;51.966;8.230;2023-11-19T12:58:49;36.03;;;5.70;;
37609;SDS011;23457;51.966;8.230;2023-11-19T13:01:17;38.60;;;4.78;;
37609;SDS011;23457;51.966;8.230;2023-11-19T13:03:48;34.83;;;4.90;;
37609;SDS011;23457;51.966;8.230;2023-11-19T13:06:16;38.42;;;5.35;;
37609;SDS011;23457;51.966;8.230;2023-11-19T13:08:43;33.25;;;6.38;;
37609;SDS011;23457;51.966;8.230;2023-11-19T13:11:12;26.93;;;4.73;;
37609;SDS011;23457;51.966;8.230;2023-11-19T13:13:58;32.45;;;4.68;;
37609;SDS011;23457;51.966;8.230;2023-11-19T13:16:27;31.85;;;5.10;;
37609;SDS011;23457;51.966;8.230;2023-11-19T13:18:55;34.42;;;5.78;;
37609;SDS011;23457;51.966;8.230;2023-11-19T13:21:23;33.67;;;5.68;;
37609;SDS011;23457;51.966;8.230;2023-11-19T13:23:59;33.13;;;6.10;;
37609;SDS011;23457;51.966;8.230;2023-11-19T13:26:26;33.78;;;5.75;;
37609;SDS011;23457;51.966;8.230;2023-11-19T13:28:54;25.25;;;4.30;;
37609;SDS011;23457;51.966;8.230;2023-11-19T13:31:21;31.30;;;4.32;;
37609;SDS011;23457;51.966;8.230;2023-11-19T13:33:48;34.30;;;5.47;;
37609;SDS011;23457;51.966;8.230;2023-11-19T13:36:15;32.70;;;4.75;;
37609;SDS011;23457;51.966;8.230;2023-11-19T13:38:43;32.55;;;4.60;;
37609;SDS011;23457;51.966;8.230;2023-11-19T13:41:11;31.77;;;4.95;;
37609;SDS011;23457;51.966;8.230;2023-11-19T13:43:39;24.52;;;4.50;;
37609;SDS011;23457;51.966;8.230;2023-11-19T13:46:06;33.85;;;5.65;;
37609;SDS011;23457;51.966;8.230;2023-11-19T13:48:37;33.30;;;4.18;;
37609;SDS011;23457;51.966;8.230;2023-11-19T13:51:04;34.65;;;5.40;;
37609;SDS011;23457;51.966;8.230;2023-11-19T13:53:31;34.30;;;5.55;;
37609;SDS011;23457;51.966;8.230;2023-11-19T13:56:17;30.58;;;4.80;;
37609;SDS011;23457;51.966;8.230;2023-11-19T13:58:44;35.40;;;5.55;;
37609;SDS011;23457;51.966;8.230;2023-11-19T14:01:10;30.73;;;4.22;;
37609;SDS011;23457;51.966;8.230;2023-11-19T14:03:40;25.83;;;4.63;;
37609;SDS011;23457;51.966;8.230;2023-11-19T14:06:08;26.67;;;4.57;;
37609;SDS011;23457;51.966;8.230;2023-11-19T14:08:35;30.35;;;4.55;;
37609;SDS011;23457;51.966;8.230;2023-11-19T14:11:02;29.00;;;4.82;;
37609;SDS011;23457;51.966;8.230;2023-11-19T14:13:29;34.20;;;5.20;;
37609;SDS011;23457;51.966;8.230;2023-11-19T14:15:56;21.73;;;4.18;;
37609;SDS011;23457;51.966;8.230;2023-11-19T14:18:23;26.42;;;4.57;;
37609;SDS011;23457;51.966;8.230;2023-11-19T14:20:49;28.75;;;4.78;;
37609;SDS011;23457;51.966;8.230;2023-11-19T14:23:16;24.88;;;3.92;;
37609;SDS011;23457;51.966;8.230;2023-11-19T14:25:43;25.27;;;4.25;;
37609;SDS011;23457;51.966;8.230;2023-11-19T14:28:10;19.73;;;4.30;;
37609;SDS011;23457;51.966;8.230;2023-11-19T14:30:37;23.83;;;3.70;;
37609;SDS011;23457;51.966;8.230;2023-11-19T14:33:04;24.20;;;4.45;;
37609;SDS011;23457;51.966;8.230;2023-11-19T14:35:31;29.70;;;4.05;;
37609;SDS011;23457;51.966;8.230;2023-11-19T14:38:00;24.15;;;3.45;;
37609;SDS011;23457;51.966;8.230;2023-11-19T14:40:31;23.13;;;3.25;;
37609;SDS011;23457;51.966;8.230;2023-11-19T14:43:01;27.05;;;4.13;;
37609;SDS011;23457;51.966;8.230;2023-11-19T14:45:28;22.42;;;3.22;;
37609;SDS011;23457;51.966;8.230;2023-11-19T14:48:04;20.90;;;3.60;;
37609;SDS011;23457;51.966;8.230;2023-11-19T14:50:31;15.93;;;3.15;;
37609;SDS011;23457;51.966;8.230;2023-11-19T14:52:58;24.45;;;3.67;;
37609;SDS011;23457;51.966;8.230;2023-11-19T14:55:25;24.42;;;3.95;;
37609;SDS011;23457;51.966;8.230;2023-11-19T14:57:53;18.00;;;3.60;;
37609;SDS011;23457;51.966;8.230;2023-11-19T15:00:33;23.92;;;4.00;;
37609;SDS011;23457;51.966;8.230;2023-11-19T15:03:00;22.60;;;3.70;;
37609;SDS011;23457;51.966;8.230;2023-11-19T15:05:27;23.30;;;3.63;;
37609;SDS011;23457;51.966;8.230;2023-11-19T15:07:56;23.92;;;4.30;;
37609;SDS011;23457;51.966;8.230;2023-11-19T15:10:22;22.17;;;4.13;;
37609;SDS011;23457;51.966;8.230;2023-11-19T15:12:51;25.60;;;4.57;;
37609;SDS011;23457;51.966;8.230;2023-11-19T15:15:20;22.80;;;3.75;;